Boston Corner, Indiana
Current Conditions -  °F | °C
As of 12:54 AM on Monday 22 Dec 2014 (Local Time) from KFWA Reporting Station
Haze Haze  
Wind Chill: 19°   Ceiling: 23000
Heat Index: 27°   Visibility: 6mi
Dew Point: 24°   Wind: 7mph
Humidity: 89%   Direction: 100°E
Pressure: 30.1"   Gusts: NA
Location:  40.9863°N, 84.8797°W
Report Text: KFWA 220554Z 10006KT 6SM BR BKN230 M03/M04 A3010 RMK AO2 SLP202 T10281044 11017 21033 56017
Loading
Personal Weather Stations






























Interactive Weather Map New forecast layout! Learn more

10-Day Weather Forecast

Advertisements
Track Severe Weather on mobile